Time;durP1;ratioP1;P1;durP2;ratioP2;P2;SDS_P1;SDS_P2;PMS_P1;PMS_P2;Temp;Humidity;BMP_temperature;BMP_pressure;BME280_temperature;BME280_humidity;BME280_pressure;Samples;Min_cycle;Max_cycle;Signal;HPM_P1;HPM_P2
2023/12/19 00:00:35;;;;;;;2.65;1.85;;;;;;;;;;10346898;28;20216;-75
2023/12/19 00:05:36;;;;;;;1.85;1.77;;;;;;;;;;10344103;28;20228;-74
2023/12/19 00:10:37;;;;;;;1.88;1.80;;;;;;;;;;10343823;28;20694;-73
2023/12/19 00:15:38;;;;;;;3.65;2.45;;;;;;;;;;10364776;28;20231;-73
2023/12/19 00:20:39;;;;;;;2.28;1.95;;;;;;;;;;10348935;28;20254;-74
2023/12/19 00:25:40;;;;;;;2.05;1.95;;;;;;;;;;10345880;28;20246;-73
2023/12/19 00:30:41;;;;;;;2.83;2.63;;;;;;;;;;10342571;28;20254;-73
2023/12/19 00:35:42;;;;;;;2.55;2.38;;;;;;;;;;10325472;28;20773;-74
2023/12/19 00:40:43;;;;;;;2.10;2.00;;;;;;;;;;10341047;28;20342;-73
2023/12/19 00:45:44;;;;;;;2.35;2.15;;;;;;;;;;10329043;28;20261;-72
2023/12/19 00:50:45;;;;;;;2.70;2.45;;;;;;;;;;10344354;28;20220;-74
2023/12/19 00:55:46;;;;;;;2.70;2.50;;;;;;;;;;10346807;28;20207;-73
2023/12/19 01:00:47;;;;;;;2.97;2.67;;;;;;;;;;10349655;28;20204;-73
2023/12/19 01:05:48;;;;;;;2.72;2.55;;;;;;;;;;10338673;28;20223;-73
2023/12/19 01:10:49;;;;;;;3.00;2.80;;;;;;;;;;10350502;28;20246;-74
2023/12/19 01:15:50;;;;;;;2.92;2.72;;;;;;;;;;10346014;28;20286;-75
2023/12/19 01:20:51;;;;;;;2.30;2.20;;;;;;;;;;10346071;28;20216;-75
2023/12/19 01:25:53;;;;;;;3.40;2.72;;;;;;;;;;10350194;28;20219;-74
2023/12/19 01:30:54;;;;;;;3.60;3.15;;;;;;;;;;10329159;28;20298;-73
2023/12/19 01:35:55;;;;;;;4.40;3.17;;;;;;;;;;10350249;28;20207;-72
2023/12/19 01:40:56;;;;;;;3.83;2.95;;;;;;;;;;10347020;28;20583;-72
2023/12/19 01:45:57;;;;;;;3.30;3.00;;;;;;;;;;10341559;28;20238;-74
2023/12/19 01:50:58;;;;;;;3.35;3.13;;;;;;;;;;10346620;28;20728;-74
2023/12/19 01:55:59;;;;;;;4.28;3.40;;;;;;;;;;10342966;28;20208;-73
2023/12/19 02:01:00;;;;;;;3.40;3.20;;;;;;;;;;10346841;28;20259;-73
2023/12/19 02:06:02;;;;;;;3.38;3.08;;;;;;;;;;10333936;28;20208;-75
2023/12/19 02:11:04;;;;;;;3.53;3.33;;;;;;;;;;10342398;28;20247;-74
2023/12/19 02:16:06;;;;;;;4.18;3.65;;;;;;;;;;10345190;28;20212;-74
2023/12/19 02:21:07;;;;;;;3.67;3.42;;;;;;;;;;10345882;28;20828;-73
2023/12/19 02:26:08;;;;;;;4.03;3.70;;;;;;;;;;10340560;28;20220;-73
2023/12/19 02:31:09;;;;;;;4.00;3.67;;;;;;;;;;10341758;28;20216;-72
2023/12/19 02:36:10;;;;;;;4.38;3.67;;;;;;;;;;10338821;28;20750;-73
2023/12/19 02:41:11;;;;;;;5.35;3.95;;;;;;;;;;10339999;28;20725;-72
2023/12/19 02:46:12;;;;;;;4.75;4.15;;;;;;;;;;10339081;28;20649;-74
2023/12/19 02:51:13;;;;;;;4.90;4.10;;;;;;;;;;10339534;28;20219;-71
2023/12/19 02:56:14;;;;;;;3.90;3.58;;;;;;;;;;10345661;28;20210;-73
2023/12/19 03:01:15;;;;;;;4.90;4.43;;;;;;;;;;10352455;28;20239;-74
2023/12/19 03:06:16;;;;;;;5.40;4.55;;;;;;;;;;10339231;28;20293;-74
2023/12/19 03:11:17;;;;;;;8.35;4.88;;;;;;;;;;10346213;28;20269;-73
2023/12/19 03:16:18;;;;;;;6.97;5.30;;;;;;;;;;10346203;28;21188;-74
2023/12/19 03:21:19;;;;;;;5.60;5.10;;;;;;;;;;10341589;28;20251;-73
2023/12/19 03:26:20;;;;;;;5.35;4.85;;;;;;;;;;10346642;28;20219;-72
2023/12/19 03:31:21;;;;;;;4.85;4.07;;;;;;;;;;10334700;28;22643;-72
2023/12/19 03:36:22;;;;;;;5.47;4.60;;;;;;;;;;10336907;28;20243;-74
2023/12/19 03:41:23;;;;;;;6.75;4.70;;;;;;;;;;10340336;28;20761;-72
2023/12/19 03:46:24;;;;;;;6.82;5.05;;;;;;;;;;10337437;28;20223;-74
2023/12/19 03:51:25;;;;;;;5.28;4.28;;;;;;;;;;10343848;28;20314;-75
2023/12/19 03:56:26;;;;;;;5.15;4.68;;;;;;;;;;10352706;28;20270;-74
2023/12/19 04:01:30;;;;;;;4.90;4.03;;;;;;;;;;10343921;28;20208;-75
2023/12/19 04:06:31;;;;;;;4.75;4.00;;;;;;;;;;10367732;28;20212;-76
2023/12/19 04:11:32;;;;;;;4.45;4.05;;;;;;;;;;10348721;28;20219;-74
2023/12/19 04:16:33;;;;;;;5.05;3.58;;;;;;;;;;10350361;28;20212;-75
2023/12/19 04:21:34;;;;;;;7.93;3.72;;;;;;;;;;10344511;28;20990;-77
2023/12/19 04:26:35;;;;;;;3.67;3.40;;;;;;;;;;10351978;28;20324;-75
2023/12/19 04:31:36;;;;;;;3.78;3.47;;;;;;;;;;10350815;28;20212;-75
2023/12/19 04:36:37;;;;;;;3.83;3.50;;;;;;;;;;10322111;28;24949;-75
2023/12/19 04:41:38;;;;;;;4.40;3.50;;;;;;;;;;10352447;28;20208;-74
2023/12/19 04:46:43;;;;;;;3.70;3.40;;;;;;;;;;10344847;28;20315;-74
2023/12/19 04:51:44;;;;;;;3.88;3.53;;;;;;;;;;10351485;28;20290;-74
2023/12/19 04:56:45;;;;;;;3.00;2.83;;;;;;;;;;10349925;28;20721;-76
2023/12/19 05:01:46;;;;;;;3.90;3.47;;;;;;;;;;10313930;28;20210;-75
2023/12/19 05:06:47;;;;;;;3.97;3.63;;;;;;;;;;10348024;28;20226;-75
2023/12/19 05:11:48;;;;;;;3.80;3.58;;;;;;;;;;10346609;28;20277;-75
2023/12/19 05:16:49;;;;;;;5.05;3.97;;;;;;;;;;10347527;28;20974;-74
2023/12/19 05:21:50;;;;;;;4.85;4.38;;;;;;;;;;10342638;28;20216;-73
2023/12/19 05:26:51;;;;;;;4.93;4.43;;;;;;;;;;10346954;28;20214;-74
2023/12/19 05:31:51;;;;;;;4.57;3.90;;;;;;;;;;10346372;28;20223;-75
2023/12/19 05:36:52;;;;;;;4.88;4.47;;;;;;;;;;10344485;28;20218;-76
2023/12/19 05:41:56;;;;;;;6.97;3.75;;;;;;;;;;10349746;28;20224;-77
2023/12/19 05:46:57;;;;;;;4.57;4.18;;;;;;;;;;10355109;28;20235;-75
2023/12/19 05:51:58;;;;;;;5.63;4.38;;;;;;;;;;10338899;28;20315;-77
2023/12/19 05:56:59;;;;;;;5.53;3.78;;;;;;;;;;10335916;28;21084;-78
2023/12/19 06:02:00;;;;;;;5.55;3.80;;;;;;;;;;10330371;28;20371;-75
2023/12/19 06:07:03;;;;;;;4.18;3.78;;;;;;;;;;10328505;28;20212;-75
2023/12/19 06:12:06;;;;;;;3.97;3.67;;;;;;;;;;10324510;28;20219;-77
2023/12/19 06:17:07;;;;;;;5.00;4.10;;;;;;;;;;10327866;28;20295;-75
2023/12/19 06:22:10;;;;;;;3.83;3.58;;;;;;;;;;10335529;28;20326;-75
2023/12/19 06:27:15;;;;;;;5.32;3.53;;;;;;;;;;10335104;28;20204;-75
2023/12/19 06:32:17;;;;;;;4.05;3.65;;;;;;;;;;10343620;28;20780;-75
2023/12/19 06:37:18;;;;;;;4.10;3.78;;;;;;;;;;10327130;28;20247;-74
2023/12/19 06:42:21;;;;;;;4.03;3.67;;;;;;;;;;10321604;28;20836;-76
2023/12/19 06:47:22;;;;;;;4.32;4.00;;;;;;;;;;10337013;28;20242;-75
2023/12/19 06:52:24;;;;;;;4.88;3.90;;;;;;;;;;10339556;28;20867;-76
2023/12/19 06:57:25;;;;;;;3.88;3.50;;;;;;;;;;10327663;28;20261;-75
2023/12/19 07:02:26;;;;;;;6.60;3.72;;;;;;;;;;10331883;28;20307;-73
2023/12/19 07:07:33;;;;;;;3.47;3.17;;;;;;;;;;10325248;28;20257;-74
2023/12/19 07:12:34;;;;;;;4.97;3.95;;;;;;;;;;10306093;28;20231;-74
2023/12/19 07:17:35;;;;;;;6.03;3.67;;;;;;;;;;10315546;28;20235;-74
2023/12/19 07:22:36;;;;;;;2.90;2.70;;;;;;;;;;10333674;28;20295;-76
2023/12/19 07:27:37;;;;;;;4.30;3.25;;;;;;;;;;10329885;28;20733;-76
2023/12/19 07:32:38;;;;;;;3.13;2.88;;;;;;;;;;10335020;28;20219;-77
2023/12/19 07:37:40;;;;;;;3.25;2.95;;;;;;;;;;10338068;28;20226;-74
2023/12/19 07:42:42;;;;;;;3.63;3.40;;;;;;;;;;10328995;28;20211;-75
2023/12/19 07:47:42;;;;;;;2.50;2.40;;;;;;;;;;10342561;28;20227;-76
2023/12/19 07:52:44;;;;;;;4.97;3.00;;;;;;;;;;10342399;28;20762;-76
2023/12/19 07:57:45;;;;;;;3.55;3.08;;;;;;;;;;10348551;28;20292;-76
2023/12/19 08:02:49;;;;;;;3.30;3.10;;;;;;;;;;10335610;28;20228;-74
2023/12/19 08:07:50;;;;;;;3.25;3.05;;;;;;;;;;10333115;28;20220;-76
2023/12/19 08:12:51;;;;;;;3.33;3.03;;;;;;;;;;10337263;28;20236;-77
2023/12/19 08:17:52;;;;;;;3.55;2.70;;;;;;;;;;10337554;28;20223;-76
2023/12/19 08:22:54;;;;;;;3.33;2.85;;;;;;;;;;10321296;28;20295;-76
2023/12/19 08:27:55;;;;;;;2.33;2.22;;;;;;;;;;10339142;28;20223;-76
2023/12/19 08:32:57;;;;;;;2.60;2.40;;;;;;;;;;10338685;28;20870;-76
2023/12/19 08:37:58;;;;;;;2.03;1.90;;;;;;;;;;10326478;28;20294;-76
2023/12/19 08:42:59;;;;;;;3.10;2.90;;;;;;;;;;10336656;28;20219;-77
2023/12/19 08:48:00;;;;;;;2.55;2.38;;;;;;;;;;10338289;28;20277;-76
2023/12/19 08:53:01;;;;;;;2.17;1.98;;;;;;;;;;10338585;28;20606;-77
2023/12/19 08:58:02;;;;;;;2.28;2.22;;;;;;;;;;10339776;28;20212;-76
2023/12/19 09:03:05;;;;;;;3.28;2.97;;;;;;;;;;10338203;28;20217;-78
2023/12/19 09:08:06;;;;;;;2.95;2.72;;;;;;;;;;10324808;28;20228;-75
2023/12/19 09:13:07;;;;;;;3.13;2.83;;;;;;;;;;10340889;28;20216;-76
2023/12/19 09:18:08;;;;;;;3.30;3.00;;;;;;;;;;10314173;28;20211;-78
2023/12/19 09:23:09;;;;;;;3.05;2.85;;;;;;;;;;10357624;28;20262;-76
2023/12/19 09:28:11;;;;;;;3.40;3.20;;;;;;;;;;10335433;28;20231;-77
2023/12/19 09:33:12;;;;;;;3.40;3.00;;;;;;;;;;10338659;28;20215;-79
2023/12/19 09:38:13;;;;;;;5.13;4.20;;;;;;;;;;10332710;28;20216;-76
2023/12/19 09:43:14;;;;;;;3.97;2.70;;;;;;;;;;10340286;28;20855;-78
2023/12/19 09:48:15;;;;;;;5.22;3.50;;;;;;;;;;10338460;28;20231;-78
2023/12/19 09:53:18;;;;;;;3.95;3.55;;;;;;;;;;10335998;28;20234;-78
2023/12/19 09:58:19;;;;;;;3.85;3.20;;;;;;;;;;10330551;28;20212;-76
2023/12/19 10:03:20;;;;;;;4.32;3.88;;;;;;;;;;10328285;28;20239;-77
2023/12/19 10:08:21;;;;;;;2.90;2.70;;;;;;;;;;10329313;28;20621;-76
2023/12/19 10:13:33;;;;;;;4.30;3.83;;;;;;;;;;10336984;28;20280;-77
2023/12/19 10:18:34;;;;;;;3.90;3.40;;;;;;;;;;10322991;28;20208;-77
2023/12/19 10:23:35;;;;;;;3.50;3.20;;;;;;;;;;10337965;28;20242;-77
2023/12/19 10:28:37;;;;;;;6.03;3.42;;;;;;;;;;10328043;28;20306;-76
2023/12/19 10:33:42;;;;;;;3.88;3.33;;;;;;;;;;10337361;28;20319;-75
2023/12/19 10:38:47;;;;;;;3.85;3.55;;;;;;;;;;10327407;28;20247;-74
2023/12/19 10:43:50;;;;;;;10.18;5.57;;;;;;;;;;10339728;28;20220;-74
2023/12/19 10:48:52;;;;;;;7.60;4.10;;;;;;;;;;10328828;28;20228;-75
2023/12/19 10:53:58;;;;;;;6.00;4.60;;;;;;;;;;10321686;28;21281;-74
2023/12/19 10:59:05;;;;;;;4.07;3.75;;;;;;;;;;10336286;28;20636;-75
2023/12/19 11:04:11;;;;;;;5.50;4.43;;;;;;;;;;10327152;28;20217;-75
2023/12/19 11:09:16;;;;;;;5.05;4.57;;;;;;;;;;10332196;28;20226;-75
2023/12/19 11:14:22;;;;;;;7.78;4.10;;;;;;;;;;10330679;28;20303;-77
2023/12/19 11:19:27;;;;;;;4.43;4.05;;;;;;;;;;10333369;28;20785;-75
2023/12/19 11:24:36;;;;;;;5.18;4.00;;;;;;;;;;10346045;28;20391;-77
2023/12/19 11:29:47;;;;;;;4.38;3.92;;;;;;;;;;10333738;28;20331;-77
2023/12/19 11:34:48;;;;;;;3.85;3.53;;;;;;;;;;10326555;28;20204;-75
2023/12/19 11:39:49;;;;;;;5.10;3.85;;;;;;;;;;10316373;28;20589;-74
2023/12/19 11:44:50;;;;;;;4.32;3.90;;;;;;;;;;10333068;28;20254;-78
2023/12/19 11:49:51;;;;;;;4.63;3.47;;;;;;;;;;10326079;28;20219;-76
2023/12/19 11:54:52;;;;;;;3.70;3.40;;;;;;;;;;10332141;28;20209;-75
2023/12/19 11:59:54;;;;;;;2.95;2.58;;;;;;;;;;10335670;28;20677;-75
2023/12/19 12:05:08;;;;;;;1.88;1.77;;;;;;;;;;10332533;28;20225;-76
2023/12/19 12:10:11;;;;;;;1.70;1.60;;;;;;;;;;10331780;28;20470;-75
2023/12/19 12:15:14;;;;;;;1.23;1.20;;;;;;;;;;10338962;28;21072;-76
2023/12/19 12:20:15;;;;;;;1.45;1.45;;;;;;;;;;10339339;28;20282;-76
2023/12/19 12:25:16;;;;;;;1.23;1.23;;;;;;;;;;10336782;28;20216;-76
2023/12/19 12:30:17;;;;;;;0.90;0.90;;;;;;;;;;10344741;28;20251;-76
2023/12/19 12:35:28;;;;;;;0.70;0.70;;;;;;;;;;10338990;28;20613;-74
2023/12/19 12:40:30;;;;;;;0.45;0.45;;;;;;;;;;10330768;28;20338;-75
2023/12/19 12:45:31;;;;;;;0.75;0.75;;;;;;;;;;10334166;28;20794;-75
2023/12/19 12:50:32;;;;;;;0.45;0.45;;;;;;;;;;10344773;28;20216;-75
2023/12/19 12:55:34;;;;;;;0.50;0.50;;;;;;;;;;10339273;28;20211;-77
2023/12/19 13:00:35;;;;;;;0.93;0.40;;;;;;;;;;10345470;28;20212;-75
2023/12/19 13:05:37;;;;;;;0.47;0.47;;;;;;;;;;10342643;28;21537;-77
2023/12/19 13:10:38;;;;;;;0.40;0.40;;;;;;;;;;10342953;28;20222;-77
2023/12/19 13:15:39;;;;;;;1.58;0.40;;;;;;;;;;10370039;28;20617;-74
2023/12/19 13:20:40;;;;;;;0.60;0.60;;;;;;;;;;10334231;28;20992;-75
2023/12/19 13:25:41;;;;;;;0.40;0.40;;;;;;;;;;10340783;28;20297;-74
2023/12/19 13:30:42;;;;;;;0.40;0.40;;;;;;;;;;10341551;28;20767;-75
2023/12/19 13:35:44;;;;;;;0.40;0.40;;;;;;;;;;10357081;28;20200;-74
2023/12/19 13:40:45;;;;;;;0.80;0.80;;;;;;;;;;10336065;28;20254;-74
2023/12/19 13:45:46;;;;;;;0.40;0.40;;;;;;;;;;10345967;28;20215;-77
2023/12/19 13:50:47;;;;;;;0.40;0.40;;;;;;;;;;10345281;28;20235;-75
2023/12/19 13:55:48;;;;;;;0.47;0.47;;;;;;;;;;10342572;28;20211;-75
2023/12/19 14:00:51;;;;;;;0.32;0.32;;;;;;;;;;10339903;28;20232;-76
2023/12/19 14:05:52;;;;;;;0.35;0.35;;;;;;;;;;10323331;28;20303;-74
2023/12/19 14:10:54;;;;;;;0.30;0.30;;;;;;;;;;10324940;28;20207;-76
2023/12/19 14:15:55;;;;;;;0.40;0.40;;;;;;;;;;10335905;28;20212;-74
2023/12/19 14:20:56;;;;;;;0.30;0.30;;;;;;;;;;10342799;28;20586;-75
2023/12/19 14:25:57;;;;;;;0.35;0.35;;;;;;;;;;10345778;28;20220;-75
2023/12/19 14:30:58;;;;;;;0.50;0.50;;;;;;;;;;10338429;28;20208;-74
2023/12/19 14:35:59;;;;;;;0.60;0.60;;;;;;;;;;10346559;28;20212;-74
2023/12/19 14:41:00;;;;;;;0.77;0.77;;;;;;;;;;10334789;28;20212;-76
2023/12/19 14:46:01;;;;;;;0.85;0.85;;;;;;;;;;10346743;28;20232;-74
2023/12/19 14:51:02;;;;;;;2.35;1.00;;;;;;;;;;10335802;28;20908;-76
2023/12/19 14:56:06;;;;;;;0.70;0.70;;;;;;;;;;10337224;28;20295;-75
2023/12/19 15:01:11;;;;;;;0.57;0.57;;;;;;;;;;10340368;28;21500;-73
2023/12/19 15:06:12;;;;;;;0.60;0.60;;;;;;;;;;10343256;28;20216;-74
2023/12/19 15:11:16;;;;;;;0.50;0.50;;;;;;;;;;10332211;28;20299;-75
2023/12/19 15:16:17;;;;;;;0.60;0.40;;;;;;;;;;10319116;28;20219;-74
2023/12/19 15:21:19;;;;;;;0.50;0.50;;;;;;;;;;10335702;28;20219;-75
2023/12/19 15:26:20;;;;;;;0.70;0.70;;;;;;;;;;10335571;28;20432;-76
2023/12/19 15:31:21;;;;;;;0.60;0.60;;;;;;;;;;10309623;28;20218;-76
2023/12/19 15:36:22;;;;;;;0.43;0.43;;;;;;;;;;10335613;28;20207;-74
2023/12/19 15:41:23;;;;;;;0.35;0.35;;;;;;;;;;10334538;28;20620;-74
2023/12/19 15:46:24;;;;;;;0.38;0.38;;;;;;;;;;10335492;28;20770;-75
2023/12/19 15:51:25;;;;;;;0.50;0.50;;;;;;;;;;10321378;28;20219;-74
2023/12/19 15:56:26;;;;;;;0.40;0.40;;;;;;;;;;10323194;28;20368;-75
2023/12/19 16:01:27;;;;;;;0.35;0.35;;;;;;;;;;10325174;28;20308;-75
2023/12/19 16:06:29;;;;;;;1.55;0.30;;;;;;;;;;10318110;28;20242;-74
2023/12/19 16:11:30;;;;;;;0.55;0.40;;;;;;;;;;10327468;28;21174;-77
2023/12/19 16:16:35;;;;;;;0.40;0.40;;;;;;;;;;10339025;28;20206;-77
2023/12/19 16:21:36;;;;;;;0.40;0.40;;;;;;;;;;10342444;28;20212;-78
2023/12/19 16:26:37;;;;;;;0.50;0.50;;;;;;;;;;10357745;28;20215;-74
2023/12/19 16:31:41;;;;;;;0.30;0.30;;;;;;;;;;10342092;28;20594;-79
2023/12/19 16:36:44;;;;;;;0.40;0.40;;;;;;;;;;10338124;28;20323;-77
2023/12/19 16:41:45;;;;;;;1.40;0.43;;;;;;;;;;10336017;28;20307;-76
2023/12/19 16:46:47;;;;;;;0.50;0.50;;;;;;;;;;10323235;28;20227;-78
2023/12/19 16:51:48;;;;;;;0.68;0.47;;;;;;;;;;10336324;28;20219;-79
2023/12/19 16:56:49;;;;;;;1.65;0.73;;;;;;;;;;10326415;28;20224;-76
2023/12/19 17:01:50;;;;;;;0.75;0.75;;;;;;;;;;10324270;28;20217;-76
2023/12/19 17:06:53;;;;;;;0.70;0.50;;;;;;;;;;10325708;28;20228;-76
2023/12/19 17:11:54;;;;;;;0.50;0.50;;;;;;;;;;10329515;28;20219;-78
2023/12/19 17:16:55;;;;;;;0.60;0.60;;;;;;;;;;10328827;28;21455;-79
2023/12/19 17:21:56;;;;;;;0.70;0.70;;;;;;;;;;10339042;28;20211;-76
2023/12/19 17:26:57;;;;;;;0.70;0.70;;;;;;;;;;10343910;28;20350;-75
2023/12/19 17:31:58;;;;;;;0.90;0.90;;;;;;;;;;10325304;28;20228;-73
2023/12/19 17:36:59;;;;;;;0.90;0.90;;;;;;;;;;10329792;28;20266;-73
2023/12/19 17:42:00;;;;;;;0.82;0.82;;;;;;;;;;10320322;28;20228;-74
2023/12/19 17:47:01;;;;;;;1.77;0.82;;;;;;;;;;10338463;28;20658;-77
2023/12/19 17:52:03;;;;;;;1.40;1.30;;;;;;;;;;10337206;28;20322;-77
2023/12/19 17:57:04;;;;;;;1.35;1.35;;;;;;;;;;10338724;28;20822;-75
2023/12/19 18:02:07;;;;;;;1.17;1.17;;;;;;;;;;10339515;28;20204;-76
2023/12/19 18:07:08;;;;;;;1.10;1.00;;;;;;;;;;10338059;28;20891;-77
2023/12/19 18:12:09;;;;;;;0.90;0.90;;;;;;;;;;10352045;28;20219;-75
2023/12/19 18:17:10;;;;;;;0.70;0.70;;;;;;;;;;10336840;28;20212;-76
2023/12/19 18:22:11;;;;;;;1.10;1.10;;;;;;;;;;10341318;28;20215;-78
2023/12/19 18:27:12;;;;;;;0.73;0.73;;;;;;;;;;10334405;28;20211;-76
2023/12/19 18:32:13;;;;;;;0.73;0.70;;;;;;;;;;10333568;28;20235;-77
2023/12/19 18:37:14;;;;;;;1.25;1.02;;;;;;;;;;10336641;28;20635;-81
2023/12/19 18:42:15;;;;;;;0.60;0.60;;;;;;;;;;10336023;28;20234;-79
2023/12/19 18:47:16;;;;;;;0.68;0.68;;;;;;;;;;10332360;28;20311;-77
2023/12/19 18:52:17;;;;;;;0.63;0.63;;;;;;;;;;10342120;28;20234;-78
2023/12/19 18:57:18;;;;;;;0.50;0.50;;;;;;;;;;10319111;28;20716;-77
2023/12/19 19:02:19;;;;;;;1.40;0.60;;;;;;;;;;10314223;28;20649;-77
2023/12/19 19:07:21;;;;;;;0.60;0.60;;;;;;;;;;10324938;28;20212;-78
2023/12/19 19:12:22;;;;;;;0.60;0.60;;;;;;;;;;10307494;28;20219;-78
2023/12/19 19:17:24;;;;;;;0.80;0.80;;;;;;;;;;10325906;28;20665;-76
2023/12/19 19:22:25;;;;;;;0.70;0.70;;;;;;;;;;10334101;28;20939;-78
2023/12/19 19:27:26;;;;;;;0.80;0.80;;;;;;;;;;10326692;28;20222;-78
2023/12/19 19:32:27;;;;;;;0.90;0.90;;;;;;;;;;10338139;28;20320;-76
2023/12/19 19:37:28;;;;;;;0.85;0.82;;;;;;;;;;10335678;28;20208;-76
2023/12/19 19:42:30;;;;;;;1.75;1.20;;;;;;;;;;10314396;28;20219;-77
2023/12/19 19:47:31;;;;;;;1.00;1.00;;;;;;;;;;10340883;28;20247;-77
2023/12/19 19:52:32;;;;;;;0.80;0.80;;;;;;;;;;10340521;28;20753;-76
2023/12/19 19:57:36;;;;;;;1.70;1.15;;;;;;;;;;10323039;28;20219;-76
2023/12/19 20:02:37;;;;;;;1.25;1.10;;;;;;;;;;10329640;28;20258;-76
2023/12/19 20:07:38;;;;;;;1.58;0.80;;;;;;;;;;10328403;28;20308;-77
2023/12/19 20:12:39;;;;;;;1.15;0.95;;;;;;;;;;10318280;28;20217;-76
2023/12/19 20:17:41;;;;;;;0.90;0.90;;;;;;;;;;10345742;28;20364;-77
2023/12/19 20:22:42;;;;;;;1.10;1.10;;;;;;;;;;10332318;28;20220;-77
2023/12/19 20:27:44;;;;;;;0.63;0.63;;;;;;;;;;10334217;28;20215;-77
2023/12/19 20:32:45;;;;;;;0.70;0.70;;;;;;;;;;10356876;28;20615;-76
2023/12/19 20:37:46;;;;;;;0.75;0.60;;;;;;;;;;10336309;28;20210;-77
2023/12/19 20:42:47;;;;;;;0.70;0.70;;;;;;;;;;10320009;28;20230;-77
2023/12/19 20:47:48;;;;;;;1.05;0.50;;;;;;;;;;10338096;28;20581;-77
2023/12/19 20:52:49;;;;;;;0.80;0.80;;;;;;;;;;10337205;28;20226;-77
2023/12/19 20:57:50;;;;;;;0.60;0.60;;;;;;;;;;10319906;28;20230;-76
2023/12/19 21:02:51;;;;;;;0.70;0.70;;;;;;;;;;10342514;28;20744;-76
2023/12/19 21:07:52;;;;;;;1.13;1.00;;;;;;;;;;10336192;28;20216;-79
2023/12/19 21:12:53;;;;;;;0.80;0.80;;;;;;;;;;10333892;28;20224;-76
2023/12/19 21:17:55;;;;;;;1.27;1.20;;;;;;;;;;10328910;28;20220;-76
2023/12/19 21:22:56;;;;;;;1.20;1.20;;;;;;;;;;10333613;28;20227;-75
2023/12/19 21:27:57;;;;;;;1.08;1.08;;;;;;;;;;10339264;28;20241;-75
2023/12/19 21:32:58;;;;;;;1.58;1.48;;;;;;;;;;10334048;28;20216;-75
2023/12/19 21:37:59;;;;;;;1.23;1.23;;;;;;;;;;10329069;28;20230;-76
2023/12/19 21:43:00;;;;;;;1.02;1.02;;;;;;;;;;10322006;28;20208;-75
2023/12/19 21:48:01;;;;;;;1.45;1.42;;;;;;;;;;10331891;28;20322;-77
2023/12/19 21:53:02;;;;;;;1.58;1.58;;;;;;;;;;10346705;28;20255;-76
2023/12/19 21:58:04;;;;;;;1.83;1.73;;;;;;;;;;10333189;28;20236;-76
2023/12/19 22:03:05;;;;;;;2.15;2.05;;;;;;;;;;10345455;28;20294;-77
2023/12/19 22:08:06;;;;;;;1.50;1.50;;;;;;;;;;10338109;28;20732;-77
2023/12/19 22:13:07;;;;;;;2.13;2.03;;;;;;;;;;10337612;28;20981;-75
2023/12/19 22:18:08;;;;;;;1.60;1.50;;;;;;;;;;10339079;28;20212;-76
2023/12/19 22:23:09;;;;;;;1.92;1.83;;;;;;;;;;10326292;28;20319;-77
2023/12/19 22:28:10;;;;;;;2.08;1.95;;;;;;;;;;10346368;28;21096;-76
2023/12/19 22:33:11;;;;;;;1.73;1.70;;;;;;;;;;10324506;28;20227;-75
2023/12/19 22:38:12;;;;;;;1.45;1.45;;;;;;;;;;10338904;28;20231;-76
2023/12/19 22:43:14;;;;;;;1.52;1.52;;;;;;;;;;10343417;28;20211;-75
2023/12/19 22:48:15;;;;;;;2.13;2.05;;;;;;;;;;10344569;28;20266;-76
2023/12/19 22:53:16;;;;;;;1.98;1.88;;;;;;;;;;10345157;28;20223;-75
2023/12/19 22:58:17;;;;;;;2.25;1.92;;;;;;;;;;10320450;28;20724;-76
2023/12/19 23:03:18;;;;;;;2.10;2.00;;;;;;;;;;10324394;28;20219;-76
2023/12/19 23:08:19;;;;;;;2.38;2.28;;;;;;;;;;10349199;28;20757;-77
2023/12/19 23:13:20;;;;;;;1.65;1.55;;;;;;;;;;10333638;28;20250;-76
2023/12/19 23:18:21;;;;;;;2.13;2.03;;;;;;;;;;10335834;28;20286;-77
2023/12/19 23:23:22;;;;;;;2.78;2.30;;;;;;;;;;10345305;28;20261;-76
2023/12/19 23:28:26;;;;;;;2.13;2.05;;;;;;;;;;10344702;28;20799;-76
2023/12/19 23:33:27;;;;;;;1.92;1.83;;;;;;;;;;10315600;28;20246;-76
2023/12/19 23:38:28;;;;;;;1.77;1.70;;;;;;;;;;10334624;28;20206;-75
2023/12/19 23:43:28;;;;;;;1.95;1.85;;;;;;;;;;10342798;28;20204;-76
2023/12/19 23:48:29;;;;;;;1.42;1.42;;;;;;;;;;10340280;28;20741;-76
2023/12/19 23:53:30;;;;;;;1.13;1.13;;;;;;;;;;10339453;28;20925;-75
2023/12/19 23:58:31;;;;;;;1.40;1.33;;;;;;;;;;10334259;28;20204;-76
